Hungerford, United Kingdom
Current Conditions -  °F | °C
As of 1:06 PM on Thursday 27 Nov 2014 (Local Time) from EGVP Reporting Station
Haze Haze  
Wind Chill: 43°   Ceiling: 5500
Heat Index: 46°   Visibility: 4mi
Dew Point: 45°   Wind: 7mph
Humidity: 93%   Direction: 90°E
Pressure: 29.56"   Gusts: NA
Location:  51.42°N, 1.52°W
Report Text: EGVP 271306Z 09006KT 7000 HZ FEW004 BKN055 08/07 Q1001 WHT TEMPO 8000 BLU
Loading
Personal Weather Stations






























Interactive Weather Map New forecast layout! Learn more

10-Day Weather Forecast

Advertisements
Track Severe Weather on mobile